sensor_id;sensor_type;location;lat;lon;timestamp;P1;durP1;ratioP1;P2;durP2;ratioP2
32186;SDS011;18686;53.084;8.872;2024-01-30T00:00:33;15.82;;;9.27;;
32186;SDS011;18686;53.084;8.872;2024-01-30T00:03:03;12.20;;;9.20;;
32186;SDS011;18686;53.084;8.872;2024-01-30T00:05:32;12.55;;;8.98;;
32186;SDS011;18686;53.084;8.872;2024-01-30T00:08:00;13.88;;;9.43;;
32186;SDS011;18686;53.084;8.872;2024-01-30T00:10:30;13.50;;;9.02;;
32186;SDS011;18686;53.084;8.872;2024-01-30T00:12:58;14.52;;;9.15;;
32186;SDS011;18686;53.084;8.872;2024-01-30T00:15:26;14.07;;;8.93;;
32186;SDS011;18686;53.084;8.872;2024-01-30T00:17:55;13.60;;;9.18;;
32186;SDS011;18686;53.084;8.872;2024-01-30T00:20:24;14.23;;;8.88;;
32186;SDS011;18686;53.084;8.872;2024-01-30T00:22:52;13.30;;;9.23;;
32186;SDS011;18686;53.084;8.872;2024-01-30T00:25:20;14.23;;;9.00;;
32186;SDS011;18686;53.084;8.872;2024-01-30T00:27:50;13.75;;;9.02;;
32186;SDS011;18686;53.084;8.872;2024-01-30T00:30:18;14.95;;;9.05;;
32186;SDS011;18686;53.084;8.872;2024-01-30T00:32:47;13.18;;;8.85;;
32186;SDS011;18686;53.084;8.872;2024-01-30T00:35:16;14.18;;;9.15;;
32186;SDS011;18686;53.084;8.872;2024-01-30T00:37:44;13.07;;;9.40;;
32186;SDS011;18686;53.084;8.872;2024-01-30T00:40:13;12.40;;;9.25;;
32186;SDS011;18686;53.084;8.872;2024-01-30T00:42:43;15.10;;;9.65;;
32186;SDS011;18686;53.084;8.872;2024-01-30T00:45:14;12.27;;;8.82;;
32186;SDS011;18686;53.084;8.872;2024-01-30T00:47:44;13.02;;;9.05;;
32186;SDS011;18686;53.084;8.872;2024-01-30T00:50:13;13.90;;;9.57;;
32186;SDS011;18686;53.084;8.872;2024-01-30T00:52:41;15.52;;;9.13;;
32186;SDS011;18686;53.084;8.872;2024-01-30T00:55:11;12.23;;;8.48;;
32186;SDS011;18686;53.084;8.872;2024-01-30T00:57:40;16.33;;;8.93;;
32186;SDS011;18686;53.084;8.872;2024-01-30T01:00:12;12.38;;;8.60;;
32186;SDS011;18686;53.084;8.872;2024-01-30T01:02:44;14.40;;;9.05;;
32186;SDS011;18686;53.084;8.872;2024-01-30T01:05:12;13.15;;;9.13;;
32186;SDS011;18686;53.084;8.872;2024-01-30T01:07:40;15.57;;;9.18;;
32186;SDS011;18686;53.084;8.872;2024-01-30T01:10:09;16.38;;;9.45;;
32186;SDS011;18686;53.084;8.872;2024-01-30T01:12:40;13.90;;;9.00;;
32186;SDS011;18686;53.084;8.872;2024-01-30T01:15:09;14.80;;;9.20;;
32186;SDS011;18686;53.084;8.872;2024-01-30T01:17:39;11.88;;;8.80;;
32186;SDS011;18686;53.084;8.872;2024-01-30T01:20:08;12.93;;;8.93;;
32186;SDS011;18686;53.084;8.872;2024-01-30T01:22:37;13.40;;;8.52;;
32186;SDS011;18686;53.084;8.872;2024-01-30T01:25:06;12.82;;;8.98;;
32186;SDS011;18686;53.084;8.872;2024-01-30T01:27:35;16.00;;;9.35;;
32186;SDS011;18686;53.084;8.872;2024-01-30T01:30:08;12.73;;;9.15;;
32186;SDS011;18686;53.084;8.872;2024-01-30T01:32:39;12.90;;;9.05;;
32186;SDS011;18686;53.084;8.872;2024-01-30T01:35:15;15.50;;;10.43;;
32186;SDS011;18686;53.084;8.872;2024-01-30T01:37:44;11.43;;;8.50;;
32186;SDS011;18686;53.084;8.872;2024-01-30T01:40:12;13.30;;;9.10;;
32186;SDS011;18686;53.084;8.872;2024-01-30T01:42:40;12.55;;;8.38;;
32186;SDS011;18686;53.084;8.872;2024-01-30T01:45:09;13.13;;;8.65;;
32186;SDS011;18686;53.084;8.872;2024-01-30T01:47:37;14.98;;;9.70;;
32186;SDS011;18686;53.084;8.872;2024-01-30T01:50:07;13.23;;;8.88;;
32186;SDS011;18686;53.084;8.872;2024-01-30T01:52:36;14.20;;;9.65;;
32186;SDS011;18686;53.084;8.872;2024-01-30T01:55:06;12.70;;;8.75;;
32186;SDS011;18686;53.084;8.872;2024-01-30T01:57:37;12.70;;;9.25;;
32186;SDS011;18686;53.084;8.872;2024-01-30T02:00:06;12.68;;;8.73;;
32186;SDS011;18686;53.084;8.872;2024-01-30T02:02:37;15.65;;;10.10;;
32186;SDS011;18686;53.084;8.872;2024-01-30T02:05:10;13.35;;;8.77;;
32186;SDS011;18686;53.084;8.872;2024-01-30T02:07:39;15.63;;;9.73;;
32186;SDS011;18686;53.084;8.872;2024-01-30T02:10:08;13.27;;;9.20;;
32186;SDS011;18686;53.084;8.872;2024-01-30T02:12:37;12.73;;;8.80;;
32186;SDS011;18686;53.084;8.872;2024-01-30T02:15:05;15.60;;;9.52;;
32186;SDS011;18686;53.084;8.872;2024-01-30T02:17:34;13.38;;;9.30;;
32186;SDS011;18686;53.084;8.872;2024-01-30T02:20:04;13.00;;;9.60;;
32186;SDS011;18686;53.084;8.872;2024-01-30T02:22:35;12.45;;;9.13;;
32186;SDS011;18686;53.084;8.872;2024-01-30T02:25:05;15.30;;;9.65;;
32186;SDS011;18686;53.084;8.872;2024-01-30T02:27:34;11.27;;;9.02;;
32186;SDS011;18686;53.084;8.872;2024-01-30T02:30:02;13.30;;;8.50;;
32186;SDS011;18686;53.084;8.872;2024-01-30T02:32:32;14.23;;;9.68;;
32186;SDS011;18686;53.084;8.872;2024-01-30T02:35:00;15.45;;;8.90;;
32186;SDS011;18686;53.084;8.872;2024-01-30T02:37:28;13.50;;;9.30;;
32186;SDS011;18686;53.084;8.872;2024-01-30T02:39:58;11.23;;;8.80;;
32186;SDS011;18686;53.084;8.872;2024-01-30T02:42:26;11.88;;;9.23;;
32186;SDS011;18686;53.084;8.872;2024-01-30T02:44:55;14.40;;;9.75;;
32186;SDS011;18686;53.084;8.872;2024-01-30T02:47:23;12.95;;;8.85;;
32186;SDS011;18686;53.084;8.872;2024-01-30T02:49:51;13.13;;;9.30;;
32186;SDS011;18686;53.084;8.872;2024-01-30T02:52:22;12.35;;;8.85;;
32186;SDS011;18686;53.084;8.872;2024-01-30T02:54:50;12.50;;;9.55;;
32186;SDS011;18686;53.084;8.872;2024-01-30T02:57:20;13.63;;;9.02;;
32186;SDS011;18686;53.084;8.872;2024-01-30T02:59:48;12.80;;;9.48;;
32186;SDS011;18686;53.084;8.872;2024-01-30T03:02:17;14.68;;;9.07;;
32186;SDS011;18686;53.084;8.872;2024-01-30T03:04:45;15.18;;;9.63;;
32186;SDS011;18686;53.084;8.872;2024-01-30T03:07:14;13.30;;;9.40;;
32186;SDS011;18686;53.084;8.872;2024-01-30T03:09:42;13.57;;;9.25;;
32186;SDS011;18686;53.084;8.872;2024-01-30T03:12:11;13.68;;;9.88;;
32186;SDS011;18686;53.084;8.872;2024-01-30T03:14:41;15.95;;;9.93;;
32186;SDS011;18686;53.084;8.872;2024-01-30T03:17:09;13.98;;;9.00;;
32186;SDS011;18686;53.084;8.872;2024-01-30T03:19:38;13.70;;;10.00;;
32186;SDS011;18686;53.084;8.872;2024-01-30T03:22:07;14.63;;;10.02;;
32186;SDS011;18686;53.084;8.872;2024-01-30T03:24:35;13.13;;;9.73;;
32186;SDS011;18686;53.084;8.872;2024-01-30T03:27:04;13.77;;;10.00;;
32186;SDS011;18686;53.084;8.872;2024-01-30T03:29:32;16.77;;;10.85;;
32186;SDS011;18686;53.084;8.872;2024-01-30T03:32:02;16.10;;;10.65;;
32186;SDS011;18686;53.084;8.872;2024-01-30T03:34:30;15.65;;;11.02;;
32186;SDS011;18686;53.084;8.872;2024-01-30T03:37:00;13.88;;;9.90;;
32186;SDS011;18686;53.084;8.872;2024-01-30T03:39:28;14.65;;;10.32;;
32186;SDS011;18686;53.084;8.872;2024-01-30T03:41:57;15.30;;;9.68;;
32186;SDS011;18686;53.084;8.872;2024-01-30T03:44:26;11.80;;;9.63;;
32186;SDS011;18686;53.084;8.872;2024-01-30T03:46:54;15.32;;;10.45;;
32186;SDS011;18686;53.084;8.872;2024-01-30T03:49:24;17.05;;;9.90;;
32186;SDS011;18686;53.084;8.872;2024-01-30T03:51:52;16.05;;;10.20;;
32186;SDS011;18686;53.084;8.872;2024-01-30T03:54:20;14.73;;;11.10;;
32186;SDS011;18686;53.084;8.872;2024-01-30T03:56:49;15.27;;;10.45;;
32186;SDS011;18686;53.084;8.872;2024-01-30T03:59:17;15.30;;;10.48;;
32186;SDS011;18686;53.084;8.872;2024-01-30T04:01:50;13.65;;;10.63;;
32186;SDS011;18686;53.084;8.872;2024-01-30T04:04:19;14.10;;;9.95;;
32186;SDS011;18686;53.084;8.872;2024-01-30T04:06:49;15.05;;;10.15;;
32186;SDS011;18686;53.084;8.872;2024-01-30T04:09:17;12.45;;;9.57;;
32186;SDS011;18686;53.084;8.872;2024-01-30T04:11:46;16.02;;;10.32;;
32186;SDS011;18686;53.084;8.872;2024-01-30T04:14:14;15.57;;;10.38;;
32186;SDS011;18686;53.084;8.872;2024-01-30T04:16:42;16.10;;;10.40;;
32186;SDS011;18686;53.084;8.872;2024-01-30T04:19:11;15.68;;;10.32;;
32186;SDS011;18686;53.084;8.872;2024-01-30T04:21:41;17.23;;;12.25;;
32186;SDS011;18686;53.084;8.872;2024-01-30T04:24:11;18.35;;;10.45;;
32186;SDS011;18686;53.084;8.872;2024-01-30T04:26:39;15.00;;;10.68;;
32186;SDS011;18686;53.084;8.872;2024-01-30T04:29:08;21.38;;;11.55;;
32186;SDS011;18686;53.084;8.872;2024-01-30T04:31:37;17.83;;;11.02;;
32186;SDS011;18686;53.084;8.872;2024-01-30T04:34:05;19.33;;;11.23;;
32186;SDS011;18686;53.084;8.872;2024-01-30T04:36:33;17.92;;;10.90;;
32186;SDS011;18686;53.084;8.872;2024-01-30T04:39:02;13.50;;;10.90;;
32186;SDS011;18686;53.084;8.872;2024-01-30T04:41:32;14.57;;;10.90;;
32186;SDS011;18686;53.084;8.872;2024-01-30T04:44:00;16.60;;;10.70;;
32186;SDS011;18686;53.084;8.872;2024-01-30T04:46:30;17.30;;;11.35;;
32186;SDS011;18686;53.084;8.872;2024-01-30T04:48:58;17.77;;;11.00;;
32186;SDS011;18686;53.084;8.872;2024-01-30T04:51:26;14.43;;;10.40;;
32186;SDS011;18686;53.084;8.872;2024-01-30T04:53:55;15.93;;;10.90;;
32186;SDS011;18686;53.084;8.872;2024-01-30T04:56:23;13.63;;;10.82;;
32186;SDS011;18686;53.084;8.872;2024-01-30T04:58:53;13.88;;;11.23;;
32186;SDS011;18686;53.084;8.872;2024-01-30T05:01:21;14.45;;;10.50;;
32186;SDS011;18686;53.084;8.872;2024-01-30T05:03:49;19.42;;;10.75;;
32186;SDS011;18686;53.084;8.872;2024-01-30T05:06:23;18.90;;;11.35;;
32186;SDS011;18686;53.084;8.872;2024-01-30T05:08:52;16.60;;;10.63;;
32186;SDS011;18686;53.084;8.872;2024-01-30T05:11:21;14.80;;;10.23;;
32186;SDS011;18686;53.084;8.872;2024-01-30T05:13:49;13.88;;;10.95;;
32186;SDS011;18686;53.084;8.872;2024-01-30T05:16:19;15.45;;;11.07;;
32186;SDS011;18686;53.084;8.872;2024-01-30T05:18:47;15.73;;;10.23;;
32186;SDS011;18686;53.084;8.872;2024-01-30T05:21:15;16.92;;;11.43;;
32186;SDS011;18686;53.084;8.872;2024-01-30T05:23:44;15.77;;;10.65;;
32186;SDS011;18686;53.084;8.872;2024-01-30T05:26:12;12.82;;;9.95;;
32186;SDS011;18686;53.084;8.872;2024-01-30T05:28:40;17.33;;;11.48;;
32186;SDS011;18686;53.084;8.872;2024-01-30T05:31:11;15.15;;;11.30;;
32186;SDS011;18686;53.084;8.872;2024-01-30T05:33:41;17.98;;;11.88;;
32186;SDS011;18686;53.084;8.872;2024-01-30T05:36:11;15.38;;;11.02;;
32186;SDS011;18686;53.084;8.872;2024-01-30T05:38:41;19.38;;;11.60;;
32186;SDS011;18686;53.084;8.872;2024-01-30T05:41:10;14.85;;;10.95;;
32186;SDS011;18686;53.084;8.872;2024-01-30T05:43:38;18.10;;;12.43;;
32186;SDS011;18686;53.084;8.872;2024-01-30T05:46:06;16.88;;;12.32;;
32186;SDS011;18686;53.084;8.872;2024-01-30T05:48:35;16.75;;;11.80;;
32186;SDS011;18686;53.084;8.872;2024-01-30T05:51:05;15.05;;;10.75;;
32186;SDS011;18686;53.084;8.872;2024-01-30T05:53:35;16.60;;;13.00;;
32186;SDS011;18686;53.084;8.872;2024-01-30T05:56:03;16.98;;;12.23;;
32186;SDS011;18686;53.084;8.872;2024-01-30T05:58:32;15.25;;;11.60;;
32186;SDS011;18686;53.084;8.872;2024-01-30T06:01:00;16.83;;;11.68;;
32186;SDS011;18686;53.084;8.872;2024-01-30T06:03:28;17.50;;;12.15;;
32186;SDS011;18686;53.084;8.872;2024-01-30T06:05:57;15.82;;;11.93;;
32186;SDS011;18686;53.084;8.872;2024-01-30T06:08:26;18.13;;;11.48;;
32186;SDS011;18686;53.084;8.872;2024-01-30T06:10:55;16.60;;;11.85;;
32186;SDS011;18686;53.084;8.872;2024-01-30T06:13:23;17.30;;;11.90;;
32186;SDS011;18686;53.084;8.872;2024-01-30T06:15:51;17.85;;;11.82;;
32186;SDS011;18686;53.084;8.872;2024-01-30T06:18:20;15.88;;;11.52;;
32186;SDS011;18686;53.084;8.872;2024-01-30T06:20:48;14.88;;;11.27;;
32186;SDS011;18686;53.084;8.872;2024-01-30T06:23:18;15.13;;;11.70;;
32186;SDS011;18686;53.084;8.872;2024-01-30T06:25:47;18.60;;;12.60;;
32186;SDS011;18686;53.084;8.872;2024-01-30T06:28:16;18.05;;;12.30;;
32186;SDS011;18686;53.084;8.872;2024-01-30T06:30:44;20.45;;;13.02;;
32186;SDS011;18686;53.084;8.872;2024-01-30T06:33:12;15.88;;;12.38;;
32186;SDS011;18686;53.084;8.872;2024-01-30T06:35:41;18.65;;;12.32;;
32186;SDS011;18686;53.084;8.872;2024-01-30T06:38:10;17.58;;;12.38;;
32186;SDS011;18686;53.084;8.872;2024-01-30T06:40:39;16.77;;;12.38;;
32186;SDS011;18686;53.084;8.872;2024-01-30T06:43:09;19.40;;;12.32;;
32186;SDS011;18686;53.084;8.872;2024-01-30T06:45:38;16.55;;;12.00;;
32186;SDS011;18686;53.084;8.872;2024-01-30T06:48:07;18.30;;;12.00;;
32186;SDS011;18686;53.084;8.872;2024-01-30T06:50:35;16.13;;;12.07;;
32186;SDS011;18686;53.084;8.872;2024-01-30T06:53:04;15.30;;;12.13;;
32186;SDS011;18686;53.084;8.872;2024-01-30T06:55:32;18.33;;;12.60;;
32186;SDS011;18686;53.084;8.872;2024-01-30T06:58:00;16.88;;;12.75;;
32186;SDS011;18686;53.084;8.872;2024-01-30T07:00:30;18.42;;;13.13;;
32186;SDS011;18686;53.084;8.872;2024-01-30T07:02:59;23.60;;;12.65;;
32186;SDS011;18686;53.084;8.872;2024-01-30T07:05:27;16.83;;;12.60;;
32186;SDS011;18686;53.084;8.872;2024-01-30T07:07:56;16.48;;;13.13;;
32186;SDS011;18686;53.084;8.872;2024-01-30T07:10:25;19.67;;;12.70;;
32186;SDS011;18686;53.084;8.872;2024-01-30T07:12:53;17.65;;;12.38;;
32186;SDS011;18686;53.084;8.872;2024-01-30T07:15:22;17.85;;;13.13;;
32186;SDS011;18686;53.084;8.872;2024-01-30T07:17:51;20.50;;;13.30;;
32186;SDS011;18686;53.084;8.872;2024-01-30T07:20:20;18.00;;;12.85;;
32186;SDS011;18686;53.084;8.872;2024-01-30T07:22:49;17.42;;;12.27;;
32186;SDS011;18686;53.084;8.872;2024-01-30T07:25:17;19.98;;;13.82;;
32186;SDS011;18686;53.084;8.872;2024-01-30T07:27:46;16.25;;;12.48;;
32186;SDS011;18686;53.084;8.872;2024-01-30T07:30:14;21.80;;;13.27;;
32186;SDS011;18686;53.084;8.872;2024-01-30T07:32:43;16.25;;;12.90;;
32186;SDS011;18686;53.084;8.872;2024-01-30T07:35:13;18.13;;;13.23;;
32186;SDS011;18686;53.084;8.872;2024-01-30T07:37:42;22.08;;;13.60;;
32186;SDS011;18686;53.084;8.872;2024-01-30T07:40:10;21.60;;;12.50;;
32186;SDS011;18686;53.084;8.872;2024-01-30T07:42:39;19.13;;;12.98;;
32186;SDS011;18686;53.084;8.872;2024-01-30T07:45:08;19.33;;;13.65;;
32186;SDS011;18686;53.084;8.872;2024-01-30T07:47:37;20.17;;;13.80;;
32186;SDS011;18686;53.084;8.872;2024-01-30T07:50:05;23.55;;;13.82;;
32186;SDS011;18686;53.084;8.872;2024-01-30T07:52:36;19.58;;;13.15;;
32186;SDS011;18686;53.084;8.872;2024-01-30T07:55:06;15.25;;;12.50;;
32186;SDS011;18686;53.084;8.872;2024-01-30T07:57:35;19.83;;;13.40;;
32186;SDS011;18686;53.084;8.872;2024-01-30T08:00:06;20.80;;;13.68;;
32186;SDS011;18686;53.084;8.872;2024-01-30T08:02:34;18.05;;;13.05;;
32186;SDS011;18686;53.084;8.872;2024-01-30T08:05:03;17.45;;;11.73;;
32186;SDS011;18686;53.084;8.872;2024-01-30T08:07:31;17.08;;;12.27;;
32186;SDS011;18686;53.084;8.872;2024-01-30T08:10:01;17.48;;;12.50;;
32186;SDS011;18686;53.084;8.872;2024-01-30T08:12:30;18.88;;;13.20;;
32186;SDS011;18686;53.084;8.872;2024-01-30T08:14:58;20.00;;;12.27;;
32186;SDS011;18686;53.084;8.872;2024-01-30T08:17:26;18.73;;;13.13;;
32186;SDS011;18686;53.084;8.872;2024-01-30T08:19:55;19.75;;;12.65;;
32186;SDS011;18686;53.084;8.872;2024-01-30T08:22:24;16.98;;;11.43;;
32186;SDS011;18686;53.084;8.872;2024-01-30T08:24:53;18.52;;;12.70;;
32186;SDS011;18686;53.084;8.872;2024-01-30T08:27:23;17.33;;;11.38;;
32186;SDS011;18686;53.084;8.872;2024-01-30T08:29:51;17.20;;;11.85;;
32186;SDS011;18686;53.084;8.872;2024-01-30T08:32:19;15.38;;;11.55;;
32186;SDS011;18686;53.084;8.872;2024-01-30T08:34:50;18.65;;;11.38;;
32186;SDS011;18686;53.084;8.872;2024-01-30T08:37:18;15.43;;;11.70;;
32186;SDS011;18686;53.084;8.872;2024-01-30T08:39:47;13.48;;;10.68;;
32186;SDS011;18686;53.084;8.872;2024-01-30T08:42:15;17.30;;;11.52;;
32186;SDS011;18686;53.084;8.872;2024-01-30T08:44:46;16.70;;;11.05;;
32186;SDS011;18686;53.084;8.872;2024-01-30T08:47:15;15.73;;;10.95;;
32186;SDS011;18686;53.084;8.872;2024-01-30T08:49:45;15.60;;;10.35;;
32186;SDS011;18686;53.084;8.872;2024-01-30T08:52:13;14.20;;;10.15;;
32186;SDS011;18686;53.084;8.872;2024-01-30T08:54:41;22.08;;;11.02;;
32186;SDS011;18686;53.084;8.872;2024-01-30T08:57:10;14.93;;;9.80;;
32186;SDS011;18686;53.084;8.872;2024-01-30T08:59:38;16.55;;;10.57;;
32186;SDS011;18686;53.084;8.872;2024-01-30T09:02:08;16.52;;;9.23;;
32186;SDS011;18686;53.084;8.872;2024-01-30T09:04:39;14.75;;;9.85;;
32186;SDS011;18686;53.084;8.872;2024-01-30T09:07:08;16.15;;;9.32;;
32186;SDS011;18686;53.084;8.872;2024-01-30T09:09:38;14.95;;;9.75;;
32186;SDS011;18686;53.084;8.872;2024-01-30T09:12:07;16.95;;;10.23;;
32186;SDS011;18686;53.084;8.872;2024-01-30T09:14:39;17.98;;;9.80;;
32186;SDS011;18686;53.084;8.872;2024-01-30T09:17:09;14.00;;;9.63;;
32186;SDS011;18686;53.084;8.872;2024-01-30T09:19:38;15.30;;;10.02;;
32186;SDS011;18686;53.084;8.872;2024-01-30T09:22:06;17.80;;;10.00;;
32186;SDS011;18686;53.084;8.872;2024-01-30T09:24:35;16.65;;;9.68;;
32186;SDS011;18686;53.084;8.872;2024-01-30T09:27:03;15.32;;;9.57;;
32186;SDS011;18686;53.084;8.872;2024-01-30T09:29:32;12.63;;;9.38;;
32186;SDS011;18686;53.084;8.872;2024-01-30T09:32:03;12.57;;;9.15;;
32186;SDS011;18686;53.084;8.872;2024-01-30T09:34:34;15.73;;;9.55;;
32186;SDS011;18686;53.084;8.872;2024-01-30T09:37:03;14.57;;;9.07;;
32186;SDS011;18686;53.084;8.872;2024-01-30T09:39:31;14.70;;;9.52;;
32186;SDS011;18686;53.084;8.872;2024-01-30T09:42:01;14.27;;;9.50;;
32186;SDS011;18686;53.084;8.872;2024-01-30T09:44:34;14.38;;;8.93;;
32186;SDS011;18686;53.084;8.872;2024-01-30T09:47:06;17.67;;;10.27;;
32186;SDS011;18686;53.084;8.872;2024-01-30T09:49:35;14.27;;;8.85;;
32186;SDS011;18686;53.084;8.872;2024-01-30T09:52:06;13.07;;;8.68;;
32186;SDS011;18686;53.084;8.872;2024-01-30T09:54:35;13.88;;;9.15;;
32186;SDS011;18686;53.084;8.872;2024-01-30T09:57:04;16.23;;;8.88;;
32186;SDS011;18686;53.084;8.872;2024-01-30T09:59:33;12.77;;;9.20;;
32186;SDS011;18686;53.084;8.872;2024-01-30T10:02:02;11.20;;;8.82;;
32186;SDS011;18686;53.084;8.872;2024-01-30T10:04:31;13.05;;;8.70;;
32186;SDS011;18686;53.084;8.872;2024-01-30T10:07:02;17.02;;;9.60;;
32186;SDS011;18686;53.084;8.872;2024-01-30T10:09:32;14.68;;;9.30;;
32186;SDS011;18686;53.084;8.872;2024-01-30T10:12:01;13.30;;;8.88;;
32186;SDS011;18686;53.084;8.872;2024-01-30T10:14:31;13.75;;;8.43;;
32186;SDS011;18686;53.084;8.872;2024-01-30T10:17:00;12.77;;;8.38;;
32186;SDS011;18686;53.084;8.872;2024-01-30T10:19:39;12.52;;;8.13;;
32186;SDS011;18686;53.084;8.872;2024-01-30T10:22:10;14.55;;;8.43;;
32186;SDS011;18686;53.084;8.872;2024-01-30T10:24:39;15.88;;;8.45;;
32186;SDS011;18686;53.084;8.872;2024-01-30T10:27:07;13.10;;;8.18;;
32186;SDS011;18686;53.084;8.872;2024-01-30T10:29:36;11.93;;;8.25;;
32186;SDS011;18686;53.084;8.872;2024-01-30T10:32:05;12.63;;;7.38;;
32186;SDS011;18686;53.084;8.872;2024-01-30T10:34:33;12.43;;;8.93;;
32186;SDS011;18686;53.084;8.872;2024-01-30T10:37:05;16.55;;;9.07;;
32186;SDS011;18686;53.084;8.872;2024-01-30T10:39:41;15.00;;;8.68;;
32186;SDS011;18686;53.084;8.872;2024-01-30T10:42:11;17.17;;;8.93;;
32186;SDS011;18686;53.084;8.872;2024-01-30T10:44:44;11.15;;;7.03;;
32186;SDS011;18686;53.084;8.872;2024-01-30T10:47:21;12.60;;;7.93;;
32186;SDS011;18686;53.084;8.872;2024-01-30T10:49:53;13.52;;;7.82;;
32186;SDS011;18686;53.084;8.872;2024-01-30T10:52:23;11.90;;;7.70;;
32186;SDS011;18686;53.084;8.872;2024-01-30T10:54:55;11.68;;;8.05;;
32186;SDS011;18686;53.084;8.872;2024-01-30T10:57:27;10.18;;;7.20;;
32186;SDS011;18686;53.084;8.872;2024-01-30T10:59:56;9.15;;;6.45;;
32186;SDS011;18686;53.084;8.872;2024-01-30T11:02:26;9.57;;;6.72;;
32186;SDS011;18686;53.084;8.872;2024-01-30T11:04:55;9.60;;;6.68;;
32186;SDS011;18686;53.084;8.872;2024-01-30T11:07:26;12.52;;;6.75;;
32186;SDS011;18686;53.084;8.872;2024-01-30T11:10:01;12.45;;;6.47;;
32186;SDS011;18686;53.084;8.872;2024-01-30T11:12:31;11.13;;;6.45;;
32186;SDS011;18686;53.084;8.872;2024-01-30T11:15:01;11.35;;;6.20;;
32186;SDS011;18686;53.084;8.872;2024-01-30T11:17:44;10.00;;;6.15;;
32186;SDS011;18686;53.084;8.872;2024-01-30T11:20:19;9.88;;;5.72;;
32186;SDS011;18686;53.084;8.872;2024-01-30T11:22:50;10.88;;;6.47;;
32186;SDS011;18686;53.084;8.872;2024-01-30T11:25:21;11.20;;;6.22;;
32186;SDS011;18686;53.084;8.872;2024-01-30T11:27:51;10.52;;;6.43;;
32186;SDS011;18686;53.084;8.872;2024-01-30T11:30:21;10.60;;;6.72;;
32186;SDS011;18686;53.084;8.872;2024-01-30T11:33:00;14.95;;;6.15;;
32186;SDS011;18686;53.084;8.872;2024-01-30T11:35:33;9.00;;;5.78;;
32186;SDS011;18686;53.084;8.872;2024-01-30T11:38:02;8.80;;;6.18;;
32186;SDS011;18686;53.084;8.872;2024-01-30T11:40:33;12.15;;;6.25;;
32186;SDS011;18686;53.084;8.872;2024-01-30T11:43:03;9.25;;;6.30;;
32186;SDS011;18686;53.084;8.872;2024-01-30T11:45:33;8.57;;;5.63;;
32186;SDS011;18686;53.084;8.872;2024-01-30T11:48:02;9.43;;;6.35;;
32186;SDS011;18686;53.084;8.872;2024-01-30T11:50:33;10.73;;;6.10;;
32186;SDS011;18686;53.084;8.872;2024-01-30T11:53:01;11.23;;;5.65;;
32186;SDS011;18686;53.084;8.872;2024-01-30T11:55:30;7.85;;;5.90;;
32186;SDS011;18686;53.084;8.872;2024-01-30T11:58:02;12.45;;;6.95;;
32186;SDS011;18686;53.084;8.872;2024-01-30T12:00:32;10.65;;;6.10;;
32186;SDS011;18686;53.084;8.872;2024-01-30T12:03:02;10.10;;;6.32;;
32186;SDS011;18686;53.084;8.872;2024-01-30T12:05:33;11.88;;;6.47;;
32186;SDS011;18686;53.084;8.872;2024-01-30T12:08:02;10.75;;;6.72;;
32186;SDS011;18686;53.084;8.872;2024-01-30T12:10:32;13.55;;;6.70;;
32186;SDS011;18686;53.084;8.872;2024-01-30T12:13:01;13.38;;;6.43;;
32186;SDS011;18686;53.084;8.872;2024-01-30T12:15:29;11.10;;;6.72;;
32186;SDS011;18686;53.084;8.872;2024-01-30T12:18:04;10.90;;;6.47;;
32186;SDS011;18686;53.084;8.872;2024-01-30T12:20:34;11.23;;;6.82;;
32186;SDS011;18686;53.084;8.872;2024-01-30T12:23:03;10.05;;;6.32;;
32186;SDS011;18686;53.084;8.872;2024-01-30T12:25:33;10.00;;;5.75;;
32186;SDS011;18686;53.084;8.872;2024-01-30T12:28:01;12.82;;;6.43;;
32186;SDS011;18686;53.084;8.872;2024-01-30T12:30:30;12.80;;;7.07;;
32186;SDS011;18686;53.084;8.872;2024-01-30T12:32:59;10.90;;;6.45;;
32186;SDS011;18686;53.084;8.872;2024-01-30T12:35:28;10.18;;;6.10;;
32186;SDS011;18686;53.084;8.872;2024-01-30T12:37:59;13.25;;;6.70;;
32186;SDS011;18686;53.084;8.872;2024-01-30T12:40:27;10.77;;;6.35;;
32186;SDS011;18686;53.084;8.872;2024-01-30T12:42:57;11.18;;;6.50;;
32186;SDS011;18686;53.084;8.872;2024-01-30T12:45:26;11.65;;;6.45;;
32186;SDS011;18686;53.084;8.872;2024-01-30T12:47:54;11.50;;;6.55;;
32186;SDS011;18686;53.084;8.872;2024-01-30T12:50:23;13.95;;;7.05;;
32186;SDS011;18686;53.084;8.872;2024-01-30T12:52:51;10.35;;;6.45;;
32186;SDS011;18686;53.084;8.872;2024-01-30T12:55:20;11.68;;;6.53;;
32186;SDS011;18686;53.084;8.872;2024-01-30T12:57:48;14.43;;;6.60;;
32186;SDS011;18686;53.084;8.872;2024-01-30T13:00:18;10.02;;;6.60;;
32186;SDS011;18686;53.084;8.872;2024-01-30T13:02:47;12.55;;;6.70;;
32186;SDS011;18686;53.084;8.872;2024-01-30T13:05:15;9.30;;;6.40;;
32186;SDS011;18686;53.084;8.872;2024-01-30T13:07:44;14.32;;;6.15;;
32186;SDS011;18686;53.084;8.872;2024-01-30T13:10:13;10.75;;;6.18;;
32186;SDS011;18686;53.084;8.872;2024-01-30T13:12:41;12.02;;;6.82;;
32186;SDS011;18686;53.084;8.872;2024-01-30T13:15:09;10.15;;;6.68;;
32186;SDS011;18686;53.084;8.872;2024-01-30T13:17:39;15.20;;;6.82;;
32186;SDS011;18686;53.084;8.872;2024-01-30T13:20:09;15.52;;;6.70;;
32186;SDS011;18686;53.084;8.872;2024-01-30T13:22:38;10.13;;;5.93;;
32186;SDS011;18686;53.084;8.872;2024-01-30T13:25:07;14.52;;;7.07;;
32186;SDS011;18686;53.084;8.872;2024-01-30T13:27:35;12.60;;;6.97;;
32186;SDS011;18686;53.084;8.872;2024-01-30T13:30:06;11.88;;;6.53;;
32186;SDS011;18686;53.084;8.872;2024-01-30T13:32:36;12.68;;;6.88;;
32186;SDS011;18686;53.084;8.872;2024-01-30T13:35:06;12.15;;;6.50;;
32186;SDS011;18686;53.084;8.872;2024-01-30T13:37:35;13.38;;;7.03;;
32186;SDS011;18686;53.084;8.872;2024-01-30T13:40:04;15.50;;;6.78;;
32186;SDS011;18686;53.084;8.872;2024-01-30T13:42:39;13.20;;;6.60;;
32186;SDS011;18686;53.084;8.872;2024-01-30T13:45:08;15.10;;;7.47;;
32186;SDS011;18686;53.084;8.872;2024-01-30T13:47:37;14.07;;;6.82;;
32186;SDS011;18686;53.084;8.872;2024-01-30T13:50:07;14.35;;;6.72;;
32186;SDS011;18686;53.084;8.872;2024-01-30T13:52:41;12.30;;;6.32;;
32186;SDS011;18686;53.084;8.872;2024-01-30T13:55:11;17.38;;;7.35;;
32186;SDS011;18686;53.084;8.872;2024-01-30T13:57:40;17.27;;;7.68;;
32186;SDS011;18686;53.084;8.872;2024-01-30T14:00:09;13.82;;;6.55;;
32186;SDS011;18686;53.084;8.872;2024-01-30T14:02:39;8.98;;;6.35;;
32186;SDS011;18686;53.084;8.872;2024-01-30T14:05:09;15.00;;;7.47;;
32186;SDS011;18686;53.084;8.872;2024-01-30T14:07:37;14.77;;;7.45;;
32186;SDS011;18686;53.084;8.872;2024-01-30T14:10:07;13.25;;;7.78;;
32186;SDS011;18686;53.084;8.872;2024-01-30T14:12:41;17.70;;;8.10;;
32186;SDS011;18686;53.084;8.872;2024-01-30T14:15:10;16.42;;;7.45;;
32186;SDS011;18686;53.084;8.872;2024-01-30T14:17:53;17.92;;;8.73;;
32186;SDS011;18686;53.084;8.872;2024-01-30T14:20:42;15.05;;;7.88;;
32186;SDS011;18686;53.084;8.872;2024-01-30T14:23:11;17.67;;;7.60;;
32186;SDS011;18686;53.084;8.872;2024-01-30T14:25:39;16.10;;;7.32;;
32186;SDS011;18686;53.084;8.872;2024-01-30T14:28:07;14.40;;;7.82;;
32186;SDS011;18686;53.084;8.872;2024-01-30T14:30:36;13.15;;;6.95;;
32186;SDS011;18686;53.084;8.872;2024-01-30T14:33:04;9.30;;;6.50;;
32186;SDS011;18686;53.084;8.872;2024-01-30T14:35:33;11.75;;;6.93;;
32186;SDS011;18686;53.084;8.872;2024-01-30T14:38:03;13.40;;;7.10;;
32186;SDS011;18686;53.084;8.872;2024-01-30T14:40:34;13.90;;;7.00;;
32186;SDS011;18686;53.084;8.872;2024-01-30T14:43:03;11.00;;;6.75;;